createdAt,value
2019-04-28T00:01:53.625Z,17.20
2019-04-28T00:04:22.398Z,17.20
2019-04-28T00:06:51.765Z,17.20
2019-04-28T00:09:23.091Z,17.10
2019-04-28T00:11:51.980Z,17.10
2019-04-28T00:14:21.972Z,17.00
2019-04-28T00:16:51.253Z,17.00
2019-04-28T00:19:21.772Z,16.90
2019-04-28T00:21:55.319Z,16.90
2019-04-28T00:24:34.706Z,16.90
2019-04-28T00:27:04.523Z,16.80
2019-04-28T00:29:40.496Z,16.80
2019-04-28T00:32:04.104Z,16.70
2019-04-28T00:34:32.842Z,16.70
2019-04-28T00:37:03.223Z,16.60
2019-04-28T00:39:31.950Z,16.60
2019-04-28T00:42:03.047Z,16.50
2019-04-28T00:44:31.523Z,16.50
2019-04-28T00:47:01.128Z,16.50
2019-04-28T00:49:48.435Z,16.40
2019-04-28T00:52:18.385Z,16.40
2019-04-28T00:54:48.012Z,16.30
2019-04-28T00:57:16.931Z,16.30
2019-04-28T00:59:55.208Z,16.30
2019-04-28T01:02:17.698Z,16.30
2019-04-28T01:04:46.419Z,16.30
2019-04-28T01:07:15.146Z,16.20
2019-04-28T01:09:43.862Z,16.10
2019-04-28T01:12:12.587Z,16.10
2019-04-28T01:14:43.374Z,16.10
2019-04-28T01:17:19.807Z,16.00
2019-04-28T01:19:51.429Z,16.00
2019-04-28T01:22:20.286Z,16.00
2019-04-28T01:24:49.715Z,15.90
2019-04-28T01:27:20.362Z,15.90
2019-04-28T01:29:49.841Z,15.80
2019-04-28T01:32:27.330Z,15.80
2019-04-28T01:34:56.120Z,15.70
2019-04-28T01:37:24.857Z,15.80
2019-04-28T01:39:53.594Z,15.70
2019-04-28T01:42:22.318Z,15.70
2019-04-28T01:44:51.041Z,15.60
2019-04-28T01:47:20.467Z,15.60
2019-04-28T01:49:50.106Z,15.60
2019-04-28T01:52:18.042Z,15.50
2019-04-28T01:54:46.809Z,15.50
2019-04-28T01:57:15.542Z,15.50
2019-04-28T01:59:44.276Z,15.40
2019-04-28T02:02:13.010Z,15.40
2019-04-28T02:04:41.747Z,15.30
2019-04-28T02:07:11.169Z,15.30
2019-04-28T02:09:39.530Z,15.30
2019-04-28T02:12:10.494Z,15.30
2019-04-28T02:14:40.425Z,15.30
2019-04-28T02:17:10.491Z,15.20
2019-04-28T02:19:40.948Z,15.20
2019-04-28T02:22:11.602Z,15.20
2019-04-28T02:24:40.831Z,15.20
2019-04-28T02:27:10.562Z,15.10
2019-04-28T02:29:41.414Z,15.10
2019-04-28T02:32:11.610Z,15.10
2019-04-28T02:34:41.272Z,15.00
2019-04-28T02:37:11.357Z,15.10
2019-04-28T02:39:41.118Z,14.90
2019-04-28T02:42:10.914Z,15.00
2019-04-28T02:44:40.475Z,14.90
2019-04-28T02:47:10.778Z,14.90
2019-04-28T02:49:44.153Z,14.80
2019-04-28T02:52:16.946Z,14.90
2019-04-28T02:54:45.759Z,14.90
2019-04-28T02:57:14.495Z,14.80
2019-04-28T02:59:44.710Z,14.80
2019-04-28T03:02:13.774Z,14.80
2019-04-28T03:04:42.494Z,14.80
2019-04-28T03:07:14.390Z,14.70
2019-04-28T03:09:41.618Z,14.70
2019-04-28T03:12:11.306Z,14.70
2019-04-28T03:14:43.352Z,14.60
2019-04-28T03:17:11.148Z,14.60
2019-04-28T03:19:41.529Z,14.70
2019-04-28T03:22:11.442Z,14.60
2019-04-28T03:24:41.514Z,14.60
2019-04-28T03:27:27.215Z,14.60
2019-04-28T03:30:00.463Z,14.60
2019-04-28T03:32:43.873Z,14.70
2019-04-28T03:35:03.976Z,14.60
2019-04-28T03:37:33.012Z,14.70
2019-04-28T03:40:01.742Z,14.70
2019-04-28T03:42:31.387Z,14.60
2019-04-28T03:45:01.999Z,14.60
2019-04-28T03:47:31.509Z,14.60
2019-04-28T03:50:00.410Z,14.60
2019-04-28T03:52:31.622Z,14.70
2019-04-28T03:55:00.538Z,14.70
2019-04-28T03:57:31.481Z,14.70
2019-04-28T04:00:01.597Z,14.70
2019-04-28T04:02:31.303Z,14.80
2019-04-28T04:05:03.327Z,14.80
2019-04-28T04:07:31.082Z,14.70
2019-04-28T04:10:11.326Z,14.80
2019-04-28T04:12:41.993Z,14.80
2019-04-28T04:15:12.576Z,14.80
2019-04-28T04:17:42.943Z,14.90
2019-04-28T04:20:14.611Z,14.90
2019-04-28T04:22:43.350Z,15.00
2019-04-28T04:25:12.768Z,14.90
2019-04-28T04:27:40.833Z,15.10
2019-04-28T04:30:10.775Z,15.10
2019-04-28T04:32:41.079Z,15.00
2019-04-28T04:35:10.521Z,15.10
2019-04-28T04:37:40.611Z,15.10
2019-04-28T04:40:13.120Z,15.30
2019-04-28T04:42:40.525Z,15.40
2019-04-28T04:45:10.505Z,15.40
2019-04-28T04:47:40.702Z,15.50
2019-04-28T04:50:11.332Z,15.50
2019-04-28T04:52:40.378Z,15.60
2019-04-28T04:55:11.078Z,15.70
2019-04-28T04:57:40.774Z,15.70
2019-04-28T05:00:12.240Z,15.70
2019-04-28T05:02:52.124Z,15.80
2019-04-28T05:05:22.539Z,15.90
2019-04-28T05:07:51.226Z,15.90
2019-04-28T05:10:20.421Z,16.00
2019-04-28T05:12:49.955Z,16.00
2019-04-28T05:15:20.334Z,16.00
2019-04-28T05:17:50.021Z,16.10
2019-04-28T05:20:20.132Z,16.00
2019-04-28T05:22:50.672Z,16.20
2019-04-28T05:25:24.529Z,16.30
2019-04-28T05:27:54.506Z,16.30
2019-04-28T05:30:21.916Z,16.50
2019-04-28T05:32:56.251Z,16.60
2019-04-28T05:35:22.037Z,16.60
2019-04-28T05:37:51.493Z,16.70
2019-04-28T05:40:20.605Z,16.80
2019-04-28T05:43:00.520Z,16.80
2019-04-28T05:45:31.904Z,16.90
2019-04-28T05:48:01.049Z,17.00
2019-04-28T05:50:37.240Z,17.00
2019-04-28T05:53:07.615Z,17.00
2019-04-28T05:55:41.873Z,17.00
2019-04-28T05:58:15.363Z,17.10
2019-04-28T06:00:49.875Z,17.10
2019-04-28T06:03:20.377Z,17.10
2019-04-28T06:05:49.726Z,17.10
2019-04-28T06:08:23.145Z,17.20
2019-04-28T06:10:51.893Z,17.20
2019-04-28T06:13:20.632Z,17.40
2019-04-28T06:15:49.753Z,17.40
2019-04-28T06:18:20.479Z,17.40
2019-04-28T06:20:49.782Z,17.50
2019-04-28T06:23:18.694Z,17.50
2019-04-28T06:25:47.382Z,17.60
2019-04-28T06:28:16.111Z,17.70
2019-04-28T06:30:44.847Z,17.90
2019-04-28T06:33:13.581Z,17.80
2019-04-28T06:35:42.377Z,17.80
2019-04-28T06:38:11.129Z,17.90
2019-04-28T06:40:39.920Z,17.80
2019-04-28T06:43:08.648Z,17.80
2019-04-28T06:45:37.375Z,17.90
2019-04-28T06:48:06.181Z,17.90
2019-04-28T06:50:34.922Z,18.10
2019-04-28T06:53:03.667Z,18.10
2019-04-28T06:55:32.397Z,18.20
2019-04-28T06:58:01.202Z,18.20
2019-04-28T07:00:29.963Z,18.10
2019-04-28T07:02:58.826Z,18.10
2019-04-28T07:05:27.569Z,18.10
2019-04-28T07:07:56.297Z,18.10
2019-04-28T07:10:25.027Z,18.10
2019-04-28T07:12:53.843Z,18.20
2019-04-28T07:15:22.581Z,18.40
2019-04-28T07:17:51.338Z,18.40
2019-04-28T07:20:21.719Z,18.40
2019-04-28T07:22:50.522Z,18.50
2019-04-28T07:25:19.249Z,18.60
2019-04-28T07:27:47.984Z,18.50
2019-04-28T07:30:17.979Z,18.60
2019-04-28T07:32:46.807Z,18.60
2019-04-28T07:35:15.546Z,18.70
2019-04-28T07:37:44.261Z,18.70
2019-04-28T07:40:13.007Z,18.80
2019-04-28T07:42:41.801Z,18.80
2019-04-28T07:45:10.571Z,18.70
2019-04-28T07:47:39.287Z,18.80
2019-04-28T07:50:08.327Z,18.80
2019-04-28T07:52:44.230Z,18.80
2019-04-28T07:55:14.647Z,18.80
2019-04-28T07:57:43.390Z,18.80
2019-04-28T08:00:14.211Z,18.90
2019-04-28T08:02:42.934Z,19.00
2019-04-28T08:05:11.839Z,19.00
2019-04-28T08:07:40.579Z,19.00
2019-04-28T08:10:09.606Z,19.10
2019-04-28T08:12:38.337Z,19.20
2019-04-28T08:15:07.804Z,19.30
2019-04-28T08:17:35.707Z,19.40
2019-04-28T08:20:05.904Z,19.40
2019-04-28T08:22:34.642Z,19.60
2019-04-28T08:25:03.812Z,19.70
2019-04-28T08:27:32.539Z,19.90
2019-04-28T08:30:01.356Z,20.10
2019-04-28T08:32:31.726Z,20.20
2019-04-28T08:35:00.492Z,20.30
2019-04-28T08:37:29.375Z,20.40
2019-04-28T08:39:58.134Z,20.50
2019-04-28T08:42:26.874Z,20.60
2019-04-28T08:44:55.607Z,20.70
2019-04-28T08:47:24.449Z,21.10
2019-04-28T08:49:53.177Z,21.20
2019-04-28T08:52:21.926Z,21.30
2019-04-28T08:54:50.745Z,21.50
2019-04-28T08:57:19.484Z,21.70
2019-04-28T08:59:48.204Z,21.90
2019-04-28T09:02:17.100Z,21.80
2019-04-28T09:04:45.900Z,21.90
2019-04-28T09:07:14.651Z,21.90
2019-04-28T09:09:43.402Z,22.10
2019-04-28T09:12:12.135Z,22.20
2019-04-28T09:14:40.948Z,22.20
2019-04-28T09:17:09.674Z,22.30
2019-04-28T09:19:38.414Z,22.40
2019-04-28T09:22:07.209Z,22.60
2019-04-28T09:24:35.925Z,22.60
2019-04-28T09:27:05.062Z,23.10
2019-04-28T09:29:33.823Z,23.50
2019-04-28T09:32:02.543Z,23.80
2019-04-28T09:34:31.279Z,23.70
2019-04-28T09:37:00.014Z,23.70
2019-04-28T09:39:30.383Z,24.40
2019-04-28T09:42:17.035Z,24.20
2019-04-28T09:44:45.767Z,24.20
2019-04-28T09:47:14.588Z,24.00
2019-04-28T09:49:43.327Z,24.00
2019-04-28T09:52:12.054Z,23.90
2019-04-28T09:54:40.803Z,23.90
2019-04-28T09:57:09.538Z,24.00
2019-04-28T09:59:38.279Z,24.00
2019-04-28T10:02:07.197Z,24.40
2019-04-28T10:04:41.769Z,24.40
2019-04-28T10:07:06.361Z,24.60
2019-04-28T10:09:35.071Z,24.90
2019-04-28T10:12:04.006Z,25.10
2019-04-28T10:14:32.728Z,24.80
2019-04-28T10:17:01.531Z,25.00
2019-04-28T10:19:32.532Z,25.10
2019-04-28T10:22:00.649Z,25.30
2019-04-28T10:24:29.395Z,25.20
2019-04-28T10:26:58.266Z,25.30
2019-04-28T10:29:27.008Z,25.60
2019-04-28T10:31:55.802Z,25.50
2019-04-28T10:34:24.549Z,25.40
2019-04-28T10:36:53.283Z,25.40
2019-04-28T10:39:40.113Z,25.50
2019-04-28T10:42:08.877Z,26.00
2019-04-28T10:44:39.255Z,25.90
2019-04-28T10:47:08.197Z,26.10
2019-04-28T10:49:36.999Z,26.50
2019-04-28T10:52:05.755Z,26.70
2019-04-28T10:54:34.466Z,26.60
2019-04-28T10:57:03.230Z,26.60
2019-04-28T10:59:31.964Z,26.90
2019-04-28T11:02:00.792Z,27.10
2019-04-28T11:04:40.175Z,27.20
2019-04-28T11:07:10.859Z,27.50
2019-04-28T11:09:41.230Z,27.60
2019-04-28T11:12:14.322Z,27.90
2019-04-28T11:14:43.047Z,28.00
2019-04-28T11:17:11.844Z,27.90
2019-04-28T11:19:40.647Z,27.60
2019-04-28T11:22:09.397Z,27.70
2019-04-28T11:24:38.128Z,28.50
2019-04-28T11:27:07.434Z,28.90
2019-04-28T11:29:36.232Z,29.00
2019-04-28T11:32:05.043Z,29.50
2019-04-28T11:34:35.430Z,29.50
2019-04-28T11:37:04.171Z,29.00
2019-04-28T11:39:37.239Z,29.00
2019-04-28T11:42:05.974Z,29.00
2019-04-28T11:44:37.601Z,29.70
2019-04-28T11:47:07.981Z,30.20
2019-04-28T11:49:36.711Z,30.00
2019-04-28T11:52:06.932Z,29.70
2019-04-28T11:54:35.740Z,29.60
2019-04-28T11:57:03.602Z,30.10
2019-04-28T11:59:32.350Z,28.90
2019-04-28T12:02:01.231Z,29.40
2019-04-28T12:04:29.193Z,28.80
2019-04-28T12:06:57.910Z,29.10
2019-04-28T12:09:31.099Z,29.70
2019-04-28T12:12:10.228Z,29.80
2019-04-28T12:14:46.393Z,29.40
2019-04-28T12:17:29.027Z,29.50
2019-04-28T12:20:02.382Z,29.80
2019-04-28T12:22:31.104Z,29.50
2019-04-28T12:24:59.909Z,30.10
2019-04-28T12:27:28.635Z,29.80
2019-04-28T12:29:57.337Z,30.00
2019-04-28T12:32:26.034Z,30.40
2019-04-28T12:34:54.750Z,29.70
2019-04-28T12:37:23.494Z,30.20
2019-04-28T12:39:51.448Z,30.00
2019-04-28T12:42:20.177Z,30.90
2019-04-28T12:44:48.063Z,31.20
2019-04-28T12:47:16.787Z,31.20
2019-04-28T12:49:46.292Z,30.90
2019-04-28T12:52:15.098Z,31.30
2019-04-28T12:54:44.717Z,32.00
2019-04-28T12:57:13.616Z,32.10
2019-04-28T12:59:43.978Z,32.50
2019-04-28T13:02:23.604Z,32.80
2019-04-28T13:04:59.703Z,33.00
2019-04-28T13:07:28.431Z,33.30
2019-04-28T13:09:57.153Z,33.60
2019-04-28T13:12:25.981Z,33.60
2019-04-28T13:14:54.657Z,33.40
2019-04-28T13:17:23.452Z,33.40
2019-04-28T13:19:52.183Z,33.60
2019-04-28T13:22:20.994Z,33.50
2019-04-28T13:24:49.766Z,33.70
2019-04-28T13:27:18.527Z,33.20
2019-04-28T13:29:47.228Z,33.40
2019-04-28T13:32:15.975Z,33.20
2019-04-28T13:34:44.773Z,33.70
2019-04-28T13:37:13.532Z,34.20
2019-04-28T13:39:55.980Z,34.30
2019-04-28T13:42:24.701Z,33.00
2019-04-28T13:45:07.176Z,31.10
2019-04-28T13:47:35.888Z,30.30
2019-04-28T13:50:20.504Z,29.20
2019-04-28T13:52:49.208Z,28.50
2019-04-28T13:55:27.881Z,27.70
2019-04-28T13:57:56.897Z,26.50
2019-04-28T14:00:43.809Z,26.00
2019-04-28T14:03:16.919Z,25.30
2019-04-28T14:06:03.584Z,25.10
2019-04-28T14:08:32.343Z,24.90
2019-04-28T14:11:01.147Z,25.00
2019-04-28T14:13:29.937Z,25.10
2019-04-28T14:15:58.665Z,25.70
2019-04-28T14:18:27.428Z,26.50
2019-04-28T14:20:56.190Z,26.70
2019-04-28T14:23:24.918Z,26.40
2019-04-28T14:25:53.709Z,26.10
2019-04-28T14:28:22.449Z,25.40
2019-04-28T14:30:51.240Z,25.30
2019-04-28T14:33:20.021Z,25.00
2019-04-28T14:35:48.827Z,25.00
2019-04-28T14:38:17.510Z,24.50
2019-04-28T14:40:46.242Z,24.20
2019-04-28T14:43:15.041Z,24.00
2019-04-28T14:45:44.039Z,23.90
2019-04-28T14:48:12.784Z,23.70
2019-04-28T14:50:41.623Z,23.30
2019-04-28T14:53:10.339Z,23.20
2019-04-28T14:55:39.083Z,23.10
2019-04-28T14:58:07.850Z,23.10
2019-04-28T15:00:38.660Z,22.90
2019-04-28T15:03:09.013Z,22.80
2019-04-28T15:05:48.413Z,22.50
2019-04-28T15:08:18.778Z,22.30
2019-04-28T15:10:55.319Z,22.30
2019-04-28T15:13:25.035Z,22.10
2019-04-28T15:15:53.755Z,22.10
2019-04-28T15:18:22.569Z,22.00
2019-04-28T15:20:51.360Z,21.90
2019-04-28T15:23:20.043Z,21.90
2019-04-28T15:25:48.792Z,21.80
2019-04-28T15:28:17.548Z,21.60
2019-04-28T15:30:46.266Z,21.60
2019-04-28T15:33:15.018Z,21.70
2019-04-28T15:35:43.730Z,21.70
2019-04-28T15:38:12.456Z,21.60
2019-04-28T15:40:48.502Z,21.50
2019-04-28T15:43:17.320Z,21.50
2019-04-28T15:45:46.061Z,21.40
2019-04-28T15:48:14.799Z,21.30
2019-04-28T15:50:46.127Z,21.20
2019-04-28T15:53:16.522Z,21.10
2019-04-28T15:55:53.554Z,21.10
2019-04-28T15:58:34.572Z,21.00
2019-04-28T16:01:05.416Z,21.00
2019-04-28T16:03:36.031Z,20.90
2019-04-28T16:06:05.304Z,20.80
2019-04-28T16:08:33.217Z,20.70
2019-04-28T16:11:03.659Z,20.70
2019-04-28T16:13:32.363Z,20.60
2019-04-28T16:16:02.772Z,20.50
2019-04-28T16:18:31.527Z,20.50
2019-04-28T16:21:00.291Z,20.50
2019-04-28T16:23:30.027Z,20.40
2019-04-28T16:25:58.820Z,20.40
2019-04-28T16:28:27.810Z,21.10
2019-04-28T16:30:56.710Z,23.80
2019-04-28T16:33:25.447Z,25.40
2019-04-28T16:35:54.281Z,26.20
2019-04-28T16:38:23.029Z,27.00
2019-04-28T16:40:52.610Z,27.80
2019-04-28T16:43:26.201Z,28.40
2019-04-28T16:45:56.581Z,28.80
2019-04-28T16:48:30.147Z,28.60
2019-04-28T16:51:02.835Z,29.00
2019-04-28T16:53:33.775Z,29.00
2019-04-28T16:56:04.838Z,29.10
2019-04-28T16:58:36.463Z,28.80
2019-04-28T17:01:08.049Z,29.40
2019-04-28T17:03:37.963Z,29.10
2019-04-28T17:06:07.378Z,29.10
2019-04-28T17:08:36.254Z,28.80
2019-04-28T17:11:05.761Z,28.50
2019-04-28T17:13:38.773Z,28.20
2019-04-28T17:16:07.558Z,27.80
2019-04-28T17:18:38.887Z,27.80
2019-04-28T17:21:10.377Z,27.50
2019-04-28T17:23:40.102Z,26.80
2019-04-28T17:26:11.285Z,25.40
2019-04-28T17:28:39.521Z,24.00
2019-04-28T17:31:09.154Z,22.90
2019-04-28T17:33:37.904Z,22.20
2019-04-28T17:36:06.728Z,21.70
2019-04-28T17:38:36.359Z,21.20
2019-04-28T17:41:06.251Z,20.90
2019-04-28T17:43:36.651Z,20.40
2019-04-28T17:46:07.494Z,20.00
2019-04-28T17:48:45.286Z,19.70
2019-04-28T17:51:14.063Z,19.50
2019-04-28T17:53:43.340Z,19.20
2019-04-28T17:56:12.475Z,19.00
2019-04-28T17:58:42.835Z,18.80
2019-04-28T18:01:17.236Z,18.70
2019-04-28T18:03:50.506Z,18.50
2019-04-28T18:06:24.801Z,18.30
2019-04-28T18:08:57.088Z,18.10
2019-04-28T18:11:28.953Z,18.00
2019-04-28T18:14:04.063Z,17.70
2019-04-28T18:16:45.572Z,17.50
2019-04-28T18:19:19.043Z,17.40
2019-04-28T18:21:47.774Z,17.30
2019-04-28T18:24:16.549Z,17.20
2019-04-28T18:26:51.180Z,17.00
2019-04-28T18:29:21.869Z,16.90
2019-04-28T18:32:00.024Z,16.90
2019-04-28T18:34:33.841Z,16.80
2019-04-28T18:37:12.216Z,16.70
2019-04-28T18:39:59.968Z,16.50
2019-04-28T18:42:30.297Z,16.50
2019-04-28T18:44:59.113Z,16.30
2019-04-28T18:47:27.825Z,16.20
2019-04-28T18:49:58.094Z,16.10
2019-04-28T18:52:27.803Z,16.10
2019-04-28T18:54:56.622Z,16.00
2019-04-28T18:57:25.537Z,15.90
2019-04-28T18:59:55.658Z,15.80
2019-04-28T19:02:40.772Z,15.80
2019-04-28T19:05:14.600Z,15.60
2019-04-28T19:07:51.089Z,15.60
2019-04-28T19:10:40.355Z,15.50
2019-04-28T19:13:11.032Z,15.40
2019-04-28T19:15:41.385Z,15.30
2019-04-28T19:18:17.961Z,15.30
2019-04-28T19:20:46.700Z,15.20
2019-04-28T19:23:15.441Z,15.10
2019-04-28T19:25:44.267Z,15.10
2019-04-28T19:28:12.980Z,15.10
2019-04-28T19:30:41.794Z,15.00
2019-04-28T19:33:10.529Z,14.90
2019-04-28T19:35:39.335Z,14.90
2019-04-28T19:38:08.084Z,14.80
2019-04-28T19:40:36.818Z,14.70
2019-04-28T19:43:07.408Z,14.60
2019-04-28T19:45:37.795Z,14.60
2019-04-28T19:48:06.545Z,14.60
2019-04-28T19:50:35.290Z,14.50
2019-04-28T19:53:04.139Z,14.50
2019-04-28T19:55:34.518Z,14.40
2019-04-28T19:58:13.948Z,14.40
2019-04-28T20:00:56.201Z,14.30
2019-04-28T20:03:24.968Z,14.20
2019-04-28T20:05:53.778Z,14.20
2019-04-28T20:08:22.562Z,14.10
2019-04-28T20:10:51.335Z,14.10
2019-04-28T20:13:20.098Z,14.00
2019-04-28T20:15:48.842Z,13.90
2019-04-28T20:18:17.576Z,13.90
2019-04-28T20:20:46.348Z,13.80
2019-04-28T20:23:15.065Z,13.80
2019-04-28T20:25:43.844Z,13.70
2019-04-28T20:28:12.574Z,13.70
2019-04-28T20:30:44.853Z,13.60
2019-04-28T20:33:13.270Z,13.60
2019-04-28T20:35:58.957Z,13.50
2019-04-28T20:38:29.342Z,13.40
2019-04-28T20:41:05.868Z,13.40
2019-04-28T20:43:34.688Z,13.30
2019-04-28T20:46:03.411Z,13.30
2019-04-28T20:48:32.161Z,13.20
2019-04-28T20:51:00.893Z,13.20
2019-04-28T20:53:29.614Z,13.10
2019-04-28T20:55:58.352Z,13.00
2019-04-28T20:58:27.143Z,13.00
2019-04-28T21:00:55.965Z,13.00
2019-04-28T21:03:24.774Z,12.90
2019-04-28T21:05:53.487Z,12.80
2019-04-28T21:08:22.199Z,12.70
2019-04-28T21:10:50.976Z,12.70
2019-04-28T21:13:19.795Z,12.60
2019-04-28T21:15:48.593Z,12.50
2019-04-28T21:18:17.346Z,12.50
2019-04-28T21:20:46.066Z,12.50
2019-04-28T21:23:14.811Z,12.40
2019-04-28T21:25:43.537Z,12.30
2019-04-28T21:28:12.343Z,12.30
2019-04-28T21:30:41.067Z,12.20
2019-04-28T21:33:09.809Z,12.20
2019-04-28T21:35:38.536Z,12.20
2019-04-28T21:38:07.273Z,12.10
2019-04-28T21:40:36.779Z,12.10
2019-04-28T21:43:07.167Z,12.00
2019-04-28T21:45:54.041Z,12.00
2019-04-28T21:48:33.325Z,11.90
2019-04-28T21:51:02.088Z,11.90
2019-04-28T21:53:30.802Z,11.80
2019-04-28T21:55:59.558Z,11.80
2019-04-28T21:58:33.329Z,11.70
2019-04-28T22:00:59.139Z,11.70
2019-04-28T22:03:27.870Z,11.60
2019-04-28T22:05:56.648Z,11.60
2019-04-28T22:08:25.341Z,11.50
2019-04-28T22:10:54.063Z,11.50
2019-04-28T22:13:22.814Z,11.50
2019-04-28T22:15:51.580Z,11.40
2019-04-28T22:18:20.341Z,11.40
2019-04-28T22:20:49.064Z,11.30
2019-04-28T22:23:19.439Z,11.30
2019-04-28T22:25:48.193Z,11.30
2019-04-28T22:28:16.921Z,11.20
2019-04-28T22:30:48.030Z,11.20
2019-04-28T22:33:16.775Z,11.20
2019-04-28T22:35:45.473Z,11.10
2019-04-28T22:38:14.309Z,11.00
2019-04-28T22:40:43.010Z,11.10
2019-04-28T22:43:11.758Z,11.00
2019-04-28T22:45:40.487Z,11.00
2019-04-28T22:48:10.858Z,10.90
2019-04-28T22:50:45.006Z,10.90
2019-04-28T22:53:15.410Z,10.90
2019-04-28T22:55:54.842Z,10.80
2019-04-28T22:58:34.388Z,10.90
2019-04-28T23:01:10.682Z,10.80
2019-04-28T23:03:41.052Z,10.70
2019-04-28T23:06:10.573Z,10.60
2019-04-28T23:08:38.863Z,10.60
2019-04-28T23:11:07.605Z,10.50
2019-04-28T23:13:36.384Z,10.50
2019-04-28T23:16:05.151Z,10.40
2019-04-28T23:18:34.043Z,10.40
2019-04-28T23:21:22.676Z,10.40
2019-04-28T23:23:51.481Z,10.30
2019-04-28T23:26:22.693Z,10.20
2019-04-28T23:28:51.500Z,10.20
2019-04-28T23:31:20.230Z,10.10
2019-04-28T23:33:49.048Z,10.10
2019-04-28T23:36:17.769Z,10.10
2019-04-28T23:38:46.519Z,10.00
2019-04-28T23:41:22.439Z,10.00
2019-04-28T23:43:51.173Z,9.90
2019-04-28T23:46:21.606Z,10.00
2019-04-28T23:48:50.324Z,9.90
2019-04-28T23:51:29.925Z,9.80
2019-04-28T23:54:06.796Z,9.80
2019-04-28T23:56:35.542Z,9.80
2019-04-28T23:59:04.354Z,9.70
